Time;durP1;ratioP1;P1;durP2;ratioP2;P2;SDS_P1;SDS_P2;PMS_P1;PMS_P2;Temp;Humidity;BMP_temperature;BMP_pressure;BME280_temperature;BME280_humidity;BME280_pressure;Samples;Min_cycle;Max_cycle;Signal;HPM_P1;HPM_P2
2021/03/12 00:01:27;;;;;;;;;;;;;;;;;;5053553;28;20003;-63
2021/03/12 00:03:53;;;;;;;;;;;;;;;;;;5053653;28;19920;-63
2021/03/12 00:06:19;;;;;;;;;;;;;;;;;;5053673;28;19909;-63
2021/03/12 00:08:45;;;;;;;;;;;;;;;;;;5053782;28;19904;-63
2021/03/12 00:11:11;;;;;;;;;;;;;;;;;;5053600;28;19908;-63
2021/03/12 00:13:37;;;;;;;;;;;;;;;;;;5052946;28;19915;-63
2021/03/12 00:16:03;;;;;;;;;;;;;;;;;;5053934;28;19983;-63
2021/03/12 00:18:29;;;;;;;;;;;;;;;;;;5053560;28;19905;-63
2021/03/12 00:20:55;;;;;;;;;;;;;;;;;;5053608;28;19916;-63
2021/03/12 00:23:21;;;;;;;;;;;;;;;;;;5053172;28;19947;-63
2021/03/12 00:25:47;;;;;;;;;;;;;;;;;;5053473;28;19908;-63
2021/03/12 00:28:13;;;;;;;;;;;;;;;;;;5053393;28;19905;-63
2021/03/12 00:30:39;;;;;;;;;;;;;;;;;;5053364;28;19911;-63
2021/03/12 00:33:05;;;;;;;;;;;;;;;;;;5053293;28;19905;-63
2021/03/12 00:35:31;;;;;;;;;;;;;;;;;;5053704;28;19905;-63
2021/03/12 00:37:57;;;;;;;;;;;;;;;;;;5053323;28;19999;-63
2021/03/12 00:40:23;;;;;;;;;;;;;;;;;;5053690;28;19912;-63
2021/03/12 00:42:49;;;;;;;;;;;;;;;;;;5053415;28;20293;-63
2021/03/12 00:45:15;;;;;;;;;;;;;;;;;;5053399;28;19904;-63
2021/03/12 00:47:41;;;;;;;;;;;;;;;;;;5053275;28;20365;-63
2021/03/12 00:50:07;;;;;;;;;;;;;;;;;;5054279;28;19958;-63
2021/03/12 00:52:33;;;;;;;;;;;;;;;;;;5057184;28;20378;-63
2021/03/12 00:54:59;;;;;;;;;;;;;;;;;;5057312;28;19904;-63
2021/03/12 00:57:25;;;;;;;;;;;;;;;;;;5057076;28;19905;-63
2021/03/12 00:59:51;;;;;;;;;;;;;;;;;;5057167;28;19905;-63
2021/03/12 01:02:17;;;;;;;;;;;;;;;;;;5057523;28;19909;-64
2021/03/12 01:04:43;;;;;;;;;;;;;;;;;;5056889;28;19966;-63
2021/03/12 01:07:09;;;;;;;;;;;;;;;;;;5056997;28;19911;-63
2021/03/12 01:09:35;;;;;;;;;;;;;;;;;;5056823;28;19960;-63
2021/03/12 01:12:01;;;;;;;;;;;;;;;;;;5056805;28;19952;-64
2021/03/12 01:14:27;;;;;;;;;;;;;;;;;;5056705;28;20297;-63
2021/03/12 01:16:53;;;;;;;;;;;;;;;;;;5056790;28;19912;-64
2021/03/12 01:19:19;;;;;;;;;;;;;;;;;;5056583;28;19905;-64
2021/03/12 01:21:45;;;;;;;;;;;;;;;;;;5056676;28;19905;-63
2021/03/12 01:24:11;;;;;;;;;;;;;;;;;;5056618;28;20323;-63
2021/03/12 01:26:37;;;;;;;;;;;;;;;;;;5056509;28;20008;-64
2021/03/12 01:29:03;;;;;;;;;;;;;;;;;;5056467;28;19904;-63
2021/03/12 01:31:29;;;;;;;;;;;;;;;;;;5056390;28;20003;-64
2021/03/12 01:33:55;;;;;;;;;;;;;;;;;;5056614;28;20390;-64
2021/03/12 01:36:21;;;;;;;;;;;;;;;;;;5056382;28;19987;-64
2021/03/12 01:38:47;;;;;;;;;;;;;;;;;;5056550;28;20285;-64
2021/03/12 01:41:13;;;;;;;;;;;;;;;;;;5056240;28;19955;-65
2021/03/12 01:43:39;;;;;;;;;;;;;;;;;;5055998;28;19920;-62
2021/03/12 01:46:05;;;;;;;;;;;;;;;;;;5056108;28;19904;-63
2021/03/12 01:48:31;;;;;;;;;;;;;;;;;;5055972;28;19909;-63
2021/03/12 01:50:57;;;;;;;;;;;;;;;;;;5056128;28;19901;-63
2021/03/12 01:53:23;;;;;;;;;;;;;;;;;;5056289;28;19904;-63
2021/03/12 01:55:49;;;;;;;;;;;;;;;;;;5056213;28;20353;-63
2021/03/12 01:58:15;;;;;;;;;;;;;;;;;;5056216;28;19905;-63
2021/03/12 02:00:41;;;;;;;;;;;;;;;;;;5055904;28;19909;-63
2021/03/12 02:03:07;;;;;;;;;;;;;;;;;;5054550;28;19908;-63
2021/03/12 02:05:33;;;;;;;;;;;;;;;;;;5055752;28;19944;-63
2021/03/12 02:07:59;;;;;;;;;;;;;;;;;;5055887;28;19927;-63
2021/03/12 02:10:24;;;;;;;;;;;;;;;;;;5055714;28;19905;-63
2021/03/12 02:12:50;;;;;;;;;;;;;;;;;;5055736;28;19913;-63
2021/03/12 02:15:16;;;;;;;;;;;;;;;;;;5055786;28;19912;-62
2021/03/12 02:17:42;;;;;;;;;;;;;;;;;;5055569;28;20488;-63
2021/03/12 02:20:08;;;;;;;;;;;;;;;;;;5055540;28;19905;-62
2021/03/12 02:22:34;;;;;;;;;;;;;;;;;;5055719;28;19912;-62
2021/03/12 02:25:00;;;;;;;;;;;;;;;;;;5055321;28;20400;-63
2021/03/12 02:27:26;;;;;;;;;;;;;;;;;;5055398;28;19954;-63
2021/03/12 02:29:52;;;;;;;;;;;;;;;;;;5055236;28;19911;-63
2021/03/12 02:32:18;;;;;;;;;;;;;;;;;;5055515;28;19901;-63
2021/03/12 02:34:44;;;;;;;;;;;;;;;;;;5055181;28;19951;-63
2021/03/12 02:37:10;;;;;;;;;;;;;;;;;;5055398;28;19920;-63
2021/03/12 02:39:36;;;;;;;;;;;;;;;;;;5055159;28;19904;-63
2021/03/12 02:42:02;;;;;;;;;;;;;;;;;;5055336;28;20349;-63
2021/03/12 02:44:28;;;;;;;;;;;;;;;;;;5054951;28;19913;-63
2021/03/12 02:46:54;;;;;;;;;;;;;;;;;;5055061;28;19912;-62
2021/03/12 02:49:20;;;;;;;;;;;;;;;;;;5054899;28;20001;-62
2021/03/12 02:51:46;;;;;;;;;;;;;;;;;;5055291;28;19948;-63
2021/03/12 02:54:12;;;;;;;;;;;;;;;;;;5054875;28;19905;-63
2021/03/12 02:56:38;;;;;;;;;;;;;;;;;;5054803;28;19991;-63
2021/03/12 02:59:04;;;;;;;;;;;;;;;;;;5054792;28;19905;-63
2021/03/12 03:01:30;;;;;;;;;;;;;;;;;;5054680;28;19991;-63
2021/03/12 03:03:55;;;;;;;;;;;;;;;;;;5054876;28;20324;-63
2021/03/12 03:06:21;;;;;;;;;;;;;;;;;;5054647;28;19927;-63
2021/03/12 03:08:47;;;;;;;;;;;;;;;;;;5054985;28;19971;-64
2021/03/12 03:11:13;;;;;;;;;;;;;;;;;;5054459;28;20324;-63
2021/03/12 03:13:39;;;;;;;;;;;;;;;;;;5054170;28;19911;-63
2021/03/12 03:16:05;;;;;;;;;;;;;;;;;;5053187;28;19954;-63
2021/03/12 03:18:31;;;;;;;;;;;;;;;;;;5054461;28;19905;-63
2021/03/12 03:20:57;;;;;;;;;;;;;;;;;;5054531;28;19904;-63
2021/03/12 03:23:23;;;;;;;;;;;;;;;;;;5054259;28;19920;-63
2021/03/12 03:25:49;;;;;;;;;;;;;;;;;;5054356;28;19905;-63
2021/03/12 03:28:15;;;;;;;;;;;;;;;;;;5054298;28;20003;-63
2021/03/12 03:30:41;;;;;;;;;;;;;;;;;;5054134;28;20281;-63
2021/03/12 03:33:07;;;;;;;;;;;;;;;;;;5054219;28;19905;-64
2021/03/12 03:35:33;;;;;;;;;;;;;;;;;;5054329;28;19904;-63
2021/03/12 03:37:59;;;;;;;;;;;;;;;;;;5054107;28;19904;-64
2021/03/12 03:40:25;;;;;;;;;;;;;;;;;;5054001;28;19905;-64
2021/03/12 03:42:51;;;;;;;;;;;;;;;;;;5054076;28;19962;-63
2021/03/12 03:45:17;;;;;;;;;;;;;;;;;;5053910;28;19927;-62
2021/03/12 03:47:43;;;;;;;;;;;;;;;;;;5054014;28;19905;-63
2021/03/12 03:50:09;;;;;;;;;;;;;;;;;;5053702;28;19908;-70
2021/03/12 03:52:35;;;;;;;;;;;;;;;;;;5052727;28;19991;-61
2021/03/12 03:55:01;;;;;;;;;;;;;;;;;;5053810;28;20195;-64
2021/03/12 03:57:26;;;;;;;;;;;;;;;;;;5053729;28;19912;-64
2021/03/12 03:59:52;;;;;;;;;;;;;;;;;;5054100;28;19931;-64
2021/03/12 04:02:19;;;;;;;;;;;;;;;;;;5053968;28;20297;-64
2021/03/12 04:04:45;;;;;;;;;;;;;;;;;;5053939;28;19974;-64
2021/03/12 04:07:11;;;;;;;;;;;;;;;;;;5052440;28;20438;-65
2021/03/12 04:09:36;;;;;;;;;;;;;;;;;;5053782;28;19995;-65
2021/03/12 04:12:02;;;;;;;;;;;;;;;;;;5053608;28;19958;-64
2021/03/12 04:14:28;;;;;;;;;;;;;;;;;;5053617;28;19971;-64
2021/03/12 04:16:54;;;;;;;;;;;;;;;;;;5053509;28;20398;-65
2021/03/12 04:19:20;;;;;;;;;;;;;;;;;;5053541;28;19915;-65
2021/03/12 04:21:47;;;;;;;;;;;;;;;;;;5053630;28;19904;-65
2021/03/12 04:24:12;;;;;;;;;;;;;;;;;;5053394;28;19972;-64
2021/03/12 04:26:38;;;;;;;;;;;;;;;;;;5057044;28;20290;-64
2021/03/12 04:29:04;;;;;;;;;;;;;;;;;;5057708;28;20003;-65
2021/03/12 04:31:30;;;;;;;;;;;;;;;;;;5057527;28;19908;-65
2021/03/12 04:33:56;;;;;;;;;;;;;;;;;;5057722;28;19905;-65
2021/03/12 04:36:22;;;;;;;;;;;;;;;;;;5057908;28;19987;-65
2021/03/12 04:38:48;;;;;;;;;;;;;;;;;;5057471;28;20000;-65
2021/03/12 04:41:14;;;;;;;;;;;;;;;;;;5057659;28;19911;-64
2021/03/12 04:43:40;;;;;;;;;;;;;;;;;;5057661;28;20384;-65
2021/03/12 04:46:06;;;;;;;;;;;;;;;;;;5057162;28;19999;-65
2021/03/12 04:48:32;;;;;;;;;;;;;;;;;;5057607;28;19905;-65
2021/03/12 04:50:58;;;;;;;;;;;;;;;;;;5057008;28;20388;-65
2021/03/12 04:53:24;;;;;;;;;;;;;;;;;;5057286;28;19928;-65
2021/03/12 04:55:50;;;;;;;;;;;;;;;;;;5057101;28;19909;-65
2021/03/12 04:58:16;;;;;;;;;;;;;;;;;;5057224;28;19912;-65
2021/03/12 05:00:42;;;;;;;;;;;;;;;;;;5057354;28;20626;-65
2021/03/12 05:03:08;;;;;;;;;;;;;;;;;;5057018;28;19912;-65
2021/03/12 05:05:34;;;;;;;;;;;;;;;;;;5056899;28;20361;-63
2021/03/12 05:08:00;;;;;;;;;;;;;;;;;;5057038;28;19905;-65
2021/03/12 05:10:26;;;;;;;;;;;;;;;;;;5057137;28;19905;-64
2021/03/12 05:12:52;;;;;;;;;;;;;;;;;;5056901;28;20242;-65
2021/03/12 05:15:18;;;;;;;;;;;;;;;;;;5056711;28;19904;-66
2021/03/12 05:17:43;;;;;;;;;;;;;;;;;;5056639;28;19905;-66
2021/03/12 05:20:10;;;;;;;;;;;;;;;;;;5057102;28;19905;-64
2021/03/12 05:22:35;;;;;;;;;;;;;;;;;;5056642;28;20493;-65
2021/03/12 05:25:01;;;;;;;;;;;;;;;;;;5056468;28;20007;-66
2021/03/12 05:27:27;;;;;;;;;;;;;;;;;;5056772;28;19908;-65
2021/03/12 05:29:53;;;;;;;;;;;;;;;;;;5056786;28;19991;-66
2021/03/12 05:32:19;;;;;;;;;;;;;;;;;;5056108;28;20380;-66
2021/03/12 05:34:45;;;;;;;;;;;;;;;;;;5054574;28;19905;-65
2021/03/12 05:37:11;;;;;;;;;;;;;;;;;;5055031;28;19950;-65
2021/03/12 05:39:37;;;;;;;;;;;;;;;;;;5056188;28;19904;-65
2021/03/12 05:42:03;;;;;;;;;;;;;;;;;;5055019;28;19978;-64
2021/03/12 05:44:29;;;;;;;;;;;;;;;;;;5056127;28;19920;-64
2021/03/12 05:46:55;;;;;;;;;;;;;;;;;;5056351;28;20372;-64
2021/03/12 05:49:22;;;;;;;;;;;;;;;;;;5056067;28;20273;-64
2021/03/12 05:51:48;;;;;;;;;;;;;;;;;;5055898;28;19904;-65
2021/03/12 05:54:14;;;;;;;;;;;;;;;;;;5056313;28;19911;-65
2021/03/12 05:56:40;;;;;;;;;;;;;;;;;;5056294;28;19905;-64
2021/03/12 05:59:06;;;;;;;;;;;;;;;;;;5055979;28;19904;-64
2021/03/12 06:01:32;;;;;;;;;;;;;;;;;;5055737;28;20372;-64
2021/03/12 06:03:58;;;;;;;;;;;;;;;;;;5056205;28;19924;-64
2021/03/12 06:06:26;;;;;;;;;;;;;;;;;;5055944;28;19904;-64
2021/03/12 06:08:52;;;;;;;;;;;;;;;;;;5055828;28;19904;-64
2021/03/12 06:11:18;;;;;;;;;;;;;;;;;;5055690;28;19912;-64
2021/03/12 06:13:44;;;;;;;;;;;;;;;;;;5055560;28;19909;-65
2021/03/12 06:16:10;;;;;;;;;;;;;;;;;;5055660;28;19958;-64
2021/03/12 06:18:36;;;;;;;;;;;;;;;;;;5055878;28;19911;-64
2021/03/12 06:21:02;;;;;;;;;;;;;;;;;;5055877;28;20272;-65
2021/03/12 06:23:28;;;;;;;;;;;;;;;;;;5055296;28;19946;-63
2021/03/12 06:25:54;;;;;;;;;;;;;;;;;;5055668;28;19989;-64
2021/03/12 06:28:20;;;;;;;;;;;;;;;;;;5055517;28;19912;-64
2021/03/12 06:30:46;;;;;;;;;;;;;;;;;;5055375;28;19920;-64
2021/03/12 06:33:11;;;;;;;;;;;;;;;;;;5055364;28;20332;-65
2021/03/12 06:35:37;;;;;;;;;;;;;;;;;;5055651;28;19984;-65
2021/03/12 06:38:03;;;;;;;;;;;;;;;;;;5055408;28;20350;-65
2021/03/12 06:40:29;;;;;;;;;;;;;;;;;;5055153;28;20000;-64
2021/03/12 06:42:55;;;;;;;;;;;;;;;;;;5053669;28;19975;-65
2021/03/12 06:45:21;;;;;;;;;;;;;;;;;;5055241;28;20376;-64
2021/03/12 06:47:47;;;;;;;;;;;;;;;;;;5053504;28;19915;-65
2021/03/12 06:50:13;;;;;;;;;;;;;;;;;;5055094;28;19915;-64
2021/03/12 06:52:39;;;;;;;;;;;;;;;;;;5055113;28;19995;-65
2021/03/12 06:55:06;;;;;;;;;;;;;;;;;;5054822;28;19912;-65
2021/03/12 06:57:32;;;;;;;;;;;;;;;;;;5054840;28;19912;-64
2021/03/12 06:59:58;;;;;;;;;;;;;;;;;;5054882;28;19905;-65
2021/03/12 07:02:24;;;;;;;;;;;;;;;;;;5054183;28;19915;-66
2021/03/12 07:04:50;;;;;;;;;;;;;;;;;;5054181;28;19923;-64
2021/03/12 07:07:16;;;;;;;;;;;;;;;;;;5054764;28;19904;-65
2021/03/12 07:09:42;;;;;;;;;;;;;;;;;;5054676;28;20417;-65
2021/03/12 07:12:08;;;;;;;;;;;;;;;;;;5053236;28;19916;-64
2021/03/12 07:14:34;;;;;;;;;;;;;;;;;;5053295;28;19915;-64
2021/03/12 07:17:00;;;;;;;;;;;;;;;;;;5053675;28;19932;-63
2021/03/12 07:19:26;;;;;;;;;;;;;;;;;;5053565;28;19942;-64
2021/03/12 07:21:52;;;;;;;;;;;;;;;;;;5053616;28;19912;-64
2021/03/12 07:24:18;;;;;;;;;;;;;;;;;;5053546;28;19924;-65
2021/03/12 07:26:45;;;;;;;;;;;;;;;;;;5053438;28;20277;-63
2021/03/12 07:29:11;;;;;;;;;;;;;;;;;;5053737;28;19967;-64
2021/03/12 07:31:37;;;;;;;;;;;;;;;;;;5053936;28;19904;-64
2021/03/12 07:34:03;;;;;;;;;;;;;;;;;;5054155;28;19950;-65
2021/03/12 07:36:29;;;;;;;;;;;;;;;;;;5054447;28;19905;-66
2021/03/12 07:38:55;;;;;;;;;;;;;;;;;;5054221;28;19909;-63
2021/03/12 07:41:21;;;;;;;;;;;;;;;;;;5054356;28;20007;-64
2021/03/12 07:43:47;;;;;;;;;;;;;;;;;;5053898;28;19916;-64
2021/03/12 07:46:13;;;;;;;;;;;;;;;;;;5053988;28;20263;-65
2021/03/12 07:48:39;;;;;;;;;;;;;;;;;;5053028;28;19905;-64
2021/03/12 07:51:05;;;;;;;;;;;;;;;;;;5053735;28;19905;-63
2021/03/12 07:53:31;;;;;;;;;;;;;;;;;;5053413;28;19909;-63
2021/03/12 07:55:57;;;;;;;;;;;;;;;;;;5053843;28;19904;-65
2021/03/12 07:58:23;;;;;;;;;;;;;;;;;;5053915;28;19991;-64
2021/03/12 08:00:49;;;;;;;;;;;;;;;;;;5054062;28;19904;-65
2021/03/12 08:03:15;;;;;;;;;;;;;;;;;;5053465;28;19970;-64
2021/03/12 08:05:41;;;;;;;;;;;;;;;;;;5053963;28;19909;-65
2021/03/12 08:08:07;;;;;;;;;;;;;;;;;;5053646;28;19911;-64
2021/03/12 08:10:33;;;;;;;;;;;;;;;;;;5053711;28;19905;-63
2021/03/12 08:12:59;;;;;;;;;;;;;;;;;;5053533;28;19904;-64
2021/03/12 08:15:25;;;;;;;;;;;;;;;;;;5053651;28;20274;-65
2021/03/12 08:17:51;;;;;;;;;;;;;;;;;;5053742;28;19909;-64
2021/03/12 08:20:16;;;;;;;;;;;;;;;;;;5053533;28;19958;-66
2021/03/12 08:22:42;;;;;;;;;;;;;;;;;;5053464;28;19995;-64
2021/03/12 08:25:08;;;;;;;;;;;;;;;;;;5053433;28;19920;-64
2021/03/12 08:27:34;;;;;;;;;;;;;;;;;;5053770;28;20422;-64
2021/03/12 08:30:00;;;;;;;;;;;;;;;;;;5053529;28;20281;-65
2021/03/12 08:32:26;;;;;;;;;;;;;;;;;;5053756;28;20022;-64
2021/03/12 08:34:52;;;;;;;;;;;;;;;;;;5053556;28;19905;-60
2021/03/12 08:37:18;;;;;;;;;;;;;;;;;;5053582;28;19904;-65
2021/03/12 08:39:45;;;;;;;;;;;;;;;;;;5053339;28;20357;-65
2021/03/12 08:42:11;;;;;;;;;;;;;;;;;;5053488;28;19916;-65
2021/03/12 08:44:37;;;;;;;;;;;;;;;;;;5052994;28;19912;-65
2021/03/12 08:47:03;;;;;;;;;;;;;;;;;;5053566;28;19959;-65
2021/03/12 08:49:29;;;;;;;;;;;;;;;;;;5053355;28;20357;-65
2021/03/12 08:51:55;;;;;;;;;;;;;;;;;;5053134;28;19908;-64
2021/03/12 08:54:21;;;;;;;;;;;;;;;;;;5053079;28;19915;-64
2021/03/12 08:56:47;;;;;;;;;;;;;;;;;;5053253;28;19908;-64
2021/03/12 08:59:13;;;;;;;;;;;;;;;;;;5053162;28;20391;-65
2021/03/12 09:01:39;;;;;;;;;;;;;;;;;;5053106;28;19928;-64
2021/03/12 09:04:05;;;;;;;;;;;;;;;;;;5053016;28;19978;-65
2021/03/12 09:06:31;;;;;;;;;;;;;;;;;;5053573;28;19909;-64
2021/03/12 09:08:57;;;;;;;;;;;;;;;;;;5053067;28;19905;-64
2021/03/12 09:11:23;;;;;;;;;;;;;;;;;;5053693;28;19905;-64
2021/03/12 09:13:49;;;;;;;;;;;;;;;;;;5056799;28;19958;-64
2021/03/12 09:16:15;;;;;;;;;;;;;;;;;;5056902;28;19904;-65
2021/03/12 09:18:41;;;;;;;;;;;;;;;;;;5056606;28;19991;-65
2021/03/12 09:21:07;;;;;;;;;;;;;;;;;;5056824;28;19905;-65
2021/03/12 09:23:32;;;;;;;;;;;;;;;;;;5056417;28;20011;-65
2021/03/12 09:25:58;;;;;;;;;;;;;;;;;;5056954;28;19911;-65
2021/03/12 09:28:24;;;;;;;;;;;;;;;;;;5055360;28;20258;-65
2021/03/12 09:30:50;;;;;;;;;;;;;;;;;;5056631;28;19915;-65
2021/03/12 09:33:16;;;;;;;;;;;;;;;;;;5056565;28;19904;-65
2021/03/12 09:35:42;;;;;;;;;;;;;;;;;;5056341;28;19919;-66
2021/03/12 09:38:08;;;;;;;;;;;;;;;;;;5056510;28;20280;-64
2021/03/12 09:40:35;;;;;;;;;;;;;;;;;;5056667;28;19904;-64
2021/03/12 09:43:01;;;;;;;;;;;;;;;;;;5056480;28;19908;-64
2021/03/12 09:45:27;;;;;;;;;;;;;;;;;;5056303;28;20365;-65
2021/03/12 09:47:53;;;;;;;;;;;;;;;;;;5056230;28;19912;-65
2021/03/12 09:50:19;;;;;;;;;;;;;;;;;;5056431;28;19905;-65
2021/03/12 09:52:45;;;;;;;;;;;;;;;;;;5056124;28;19905;-65
2021/03/12 09:55:11;;;;;;;;;;;;;;;;;;5056045;28;19915;-63
2021/03/12 09:57:37;;;;;;;;;;;;;;;;;;5056058;28;19905;-65
2021/03/12 10:00:03;;;;;;;;;;;;;;;;;;5055999;28;19904;-64
2021/03/12 10:02:29;;;;;;;;;;;;;;;;;;5056012;28;19904;-62
2021/03/12 10:04:55;;;;;;;;;;;;;;;;;;5055670;28;19916;-65
2021/03/12 10:07:21;;;;;;;;;;;;;;;;;;5055747;28;20407;-65
2021/03/12 10:09:47;;;;;;;;;;;;;;;;;;5056022;28;19950;-65
2021/03/12 10:12:13;;;;;;;;;;;;;;;;;;5055106;28;19904;-65
2021/03/12 10:14:39;;;;;;;;;;;;;;;;;;5055556;28;19999;-66
2021/03/12 10:17:05;;;;;;;;;;;;;;;;;;5056030;28;20315;-66
2021/03/12 10:19:31;;;;;;;;;;;;;;;;;;5055624;28;19959;-66
2021/03/12 10:21:57;;;;;;;;;;;;;;;;;;5055869;28;20361;-66
2021/03/12 10:24:23;;;;;;;;;;;;;;;;;;5054490;28;20293;-65
2021/03/12 10:26:50;;;;;;;;;;;;;;;;;;5055581;28;19951;-65
2021/03/12 10:29:16;;;;;;;;;;;;;;;;;;5055476;28;19927;-65
2021/03/12 10:31:42;;;;;;;;;;;;;;;;;;5055382;28;19904;-65
2021/03/12 10:34:08;;;;;;;;;;;;;;;;;;5055207;28;19940;-63
2021/03/12 10:36:34;;;;;;;;;;;;;;;;;;5055381;28;19912;-63
2021/03/12 10:39:00;;;;;;;;;;;;;;;;;;5055187;28;19905;-63
2021/03/12 10:41:26;;;;;;;;;;;;;;;;;;5054934;28;19905;-64
2021/03/12 10:43:52;;;;;;;;;;;;;;;;;;5055507;28;20361;-65
2021/03/12 10:46:18;;;;;;;;;;;;;;;;;;5055367;28;20011;-63
2021/03/12 10:48:44;;;;;;;;;;;;;;;;;;5054693;28;19905;-64
2021/03/12 10:51:11;;;;;;;;;;;;;;;;;;5054888;28;20399;-64
2021/03/12 10:53:37;;;;;;;;;;;;;;;;;;5055065;28;19905;-65
2021/03/12 10:56:03;;;;;;;;;;;;;;;;;;5055237;28;20357;-65
2021/03/12 10:58:29;;;;;;;;;;;;;;;;;;5054931;28;19909;-65
2021/03/12 11:00:55;;;;;;;;;;;;;;;;;;5055026;28;19913;-65
2021/03/12 11:03:21;;;;;;;;;;;;;;;;;;5054335;28;20266;-65
2021/03/12 11:05:47;;;;;;;;;;;;;;;;;;5054619;28;19905;-65
2021/03/12 11:08:13;;;;;;;;;;;;;;;;;;5054508;28;19905;-64
2021/03/12 11:10:39;;;;;;;;;;;;;;;;;;5054366;28;19995;-63
2021/03/12 11:13:05;;;;;;;;;;;;;;;;;;5054565;28;19905;-65
2021/03/12 11:15:31;;;;;;;;;;;;;;;;;;5054310;28;19998;-65
2021/03/12 11:17:57;;;;;;;;;;;;;;;;;;5054767;28;19913;-65
2021/03/12 11:20:23;;;;;;;;;;;;;;;;;;5053685;28;19997;-64
2021/03/12 11:22:49;;;;;;;;;;;;;;;;;;5054629;28;19995;-65
2021/03/12 11:25:16;;;;;;;;;;;;;;;;;;5054231;28;19966;-65
2021/03/12 11:27:42;;;;;;;;;;;;;;;;;;5054327;28;19909;-64
2021/03/12 11:30:08;;;;;;;;;;;;;;;;;;5053471;28;19913;-63
2021/03/12 11:32:34;;;;;;;;;;;;;;;;;;5054451;28;20345;-65
2021/03/12 11:35:00;;;;;;;;;;;;;;;;;;5053930;28;20285;-65
2021/03/12 11:37:26;;;;;;;;;;;;;;;;;;5053118;28;19909;-63
2021/03/12 11:39:52;;;;;;;;;;;;;;;;;;5052769;28;20273;-63
2021/03/12 11:42:18;;;;;;;;;;;;;;;;;;5052851;28;19912;-65
2021/03/12 11:44:44;;;;;;;;;;;;;;;;;;5053381;28;19913;-65
2021/03/12 11:47:10;;;;;;;;;;;;;;;;;;5052969;28;19927;-66
2021/03/12 11:49:36;;;;;;;;;;;;;;;;;;5053143;28;19911;-65
2021/03/12 11:52:02;;;;;;;;;;;;;;;;;;5052746;28;19951;-65
2021/03/12 11:54:28;;;;;;;;;;;;;;;;;;5053219;28;19963;-64
2021/03/12 11:56:54;;;;;;;;;;;;;;;;;;5052975;28;20360;-64
2021/03/12 11:59:20;;;;;;;;;;;;;;;;;;5053119;28;19950;-65
2021/03/12 12:01:46;;;;;;;;;;;;;;;;;;5052656;28;20281;-66
2021/03/12 12:04:12;;;;;;;;;;;;;;;;;;5052922;28;19913;-65
2021/03/12 12:06:38;;;;;;;;;;;;;;;;;;5052634;28;20277;-66
2021/03/12 12:09:04;;;;;;;;;;;;;;;;;;5052992;28;19908;-64
2021/03/12 12:11:30;;;;;;;;;;;;;;;;;;5053277;28;20295;-63
2021/03/12 12:13:56;;;;;;;;;;;;;;;;;;5053209;28;19905;-64
2021/03/12 12:16:22;;;;;;;;;;;;;;;;;;5052555;28;19991;-64
2021/03/12 12:18:48;;;;;;;;;;;;;;;;;;5052979;28;19904;-64
2021/03/12 12:21:14;;;;;;;;;;;;;;;;;;5052109;28;19908;-63
2021/03/12 12:23:40;;;;;;;;;;;;;;;;;;5052026;28;19917;-64
2021/03/12 12:26:06;;;;;;;;;;;;;;;;;;5052590;28;19912;-66
2021/03/12 12:28:32;;;;;;;;;;;;;;;;;;5053197;28;19928;-65
2021/03/12 12:31:01;;;;;;;;;;;;;;;;;;5052556;28;19909;-65
2021/03/12 12:33:26;;;;;;;;;;;;;;;;;;5053240;28;19915;-66
2021/03/12 12:35:52;;;;;;;;;;;;;;;;;;5053390;28;19904;-65
2021/03/12 12:38:18;;;;;;;;;;;;;;;;;;5053275;28;19959;-64
2021/03/12 12:40:44;;;;;;;;;;;;;;;;;;5052751;28;20433;-65
2021/03/12 12:43:10;;;;;;;;;;;;;;;;;;5053402;28;19913;-65
2021/03/12 12:45:36;;;;;;;;;;;;;;;;;;5053283;28;20488;-65
2021/03/12 12:48:02;;;;;;;;;;;;;;;;;;5057373;28;19912;-65
2021/03/12 12:50:28;;;;;;;;;;;;;;;;;;5057251;28;19904;-65
2021/03/12 12:52:56;;;;;;;;;;;;;;;;;;5057121;28;19911;-65
2021/03/12 12:55:22;;;;;;;;;;;;;;;;;;5057152;28;19905;-65
2021/03/12 12:57:48;;;;;;;;;;;;;;;;;;5057068;28;19958;-65
2021/03/12 13:00:14;;;;;;;;;;;;;;;;;;5057414;28;19920;-65
2021/03/12 13:02:40;;;;;;;;;;;;;;;;;;5057047;28;20033;-65
2021/03/12 13:05:06;;;;;;;;;;;;;;;;;;5057140;28;19951;-65
2021/03/12 13:07:32;;;;;;;;;;;;;;;;;;5056980;28;19908;-65
2021/03/12 13:09:58;;;;;;;;;;;;;;;;;;5056978;28;19904;-65
2021/03/12 13:12:24;;;;;;;;;;;;;;;;;;5057142;28;20033;-65
2021/03/12 13:14:50;;;;;;;;;;;;;;;;;;5056859;28;19905;-66
2021/03/12 13:17:17;;;;;;;;;;;;;;;;;;5057016;28;19905;-65
2021/03/12 13:19:43;;;;;;;;;;;;;;;;;;5056992;28;19905;-65
2021/03/12 13:22:09;;;;;;;;;;;;;;;;;;5056650;28;20447;-65
2021/03/12 13:24:35;;;;;;;;;;;;;;;;;;5056464;28;19917;-65
2021/03/12 13:27:01;;;;;;;;;;;;;;;;;;5056581;28;19905;-65
2021/03/12 13:29:27;;;;;;;;;;;;;;;;;;5054784;28;19947;-64
2021/03/12 13:31:53;;;;;;;;;;;;;;;;;;5056096;28;19905;-65
2021/03/12 13:34:19;;;;;;;;;;;;;;;;;;5056583;28;19905;-65
2021/03/12 13:36:45;;;;;;;;;;;;;;;;;;5056196;28;20286;-64
2021/03/12 13:39:12;;;;;;;;;;;;;;;;;;5056334;28;19915;-63
2021/03/12 13:41:38;;;;;;;;;;;;;;;;;;5054775;28;19951;-64
2021/03/12 13:44:06;;;;;;;;;;;;;;;;;;5053073;28;19962;-64
2021/03/12 13:46:32;;;;;;;;;;;;;;;;;;5056107;28;19905;-65
2021/03/12 13:48:58;;;;;;;;;;;;;;;;;;5056004;28;19958;-65
2021/03/12 13:51:24;;;;;;;;;;;;;;;;;;5056144;28;19991;-64
2021/03/12 13:53:50;;;;;;;;;;;;;;;;;;5056164;28;20353;-65
2021/03/12 13:56:16;;;;;;;;;;;;;;;;;;5053861;28;20327;-65
2021/03/12 13:58:42;;;;;;;;;;;;;;;;;;5053949;28;19915;-63
2021/03/12 14:01:08;;;;;;;;;;;;;;;;;;5055359;28;19909;-63
2021/03/12 14:03:34;;;;;;;;;;;;;;;;;;5054916;28;19920;-64
2021/03/12 14:06:00;;;;;;;;;;;;;;;;;;5054895;28;20276;-64
2021/03/12 14:08:26;;;;;;;;;;;;;;;;;;5054257;28;20409;-64
2021/03/12 14:10:52;;;;;;;;;;;;;;;;;;5052442;28;20384;-65
2021/03/12 14:13:18;;;;;;;;;;;;;;;;;;5054257;28;19912;-64
2021/03/12 14:15:44;;;;;;;;;;;;;;;;;;5055483;28;19904;-64
2021/03/12 14:18:10;;;;;;;;;;;;;;;;;;5053403;28;19915;-65
2021/03/12 14:20:36;;;;;;;;;;;;;;;;;;5054361;28;19908;-63
2021/03/12 14:23:02;;;;;;;;;;;;;;;;;;5054770;28;20421;-65
2021/03/12 14:25:28;;;;;;;;;;;;;;;;;;5054815;28;19912;-64
2021/03/12 14:27:54;;;;;;;;;;;;;;;;;;5054486;28;19951;-65
2021/03/12 14:30:20;;;;;;;;;;;;;;;;;;5049885;28;19905;-65
2021/03/12 14:32:46;;;;;;;;;;;;;;;;;;5053899;28;19999;-63
2021/03/12 14:35:12;;;;;;;;;;;;;;;;;;5054099;28;19908;-63
2021/03/12 14:37:38;;;;;;;;;;;;;;;;;;5053202;28;19911;-64
2021/03/12 14:40:04;;;;;;;;;;;;;;;;;;5053855;28;20281;-65
2021/03/12 14:42:30;;;;;;;;;;;;;;;;;;5054867;28;19954;-64
2021/03/12 14:44:56;;;;;;;;;;;;;;;;;;5054251;28;20273;-63
2021/03/12 14:47:22;;;;;;;;;;;;;;;;;;5053996;28;19920;-65
2021/03/12 14:49:48;;;;;;;;;;;;;;;;;;5054895;28;19904;-66
2021/03/12 14:52:14;;;;;;;;;;;;;;;;;;5054819;28;19939;-64
2021/03/12 14:54:40;;;;;;;;;;;;;;;;;;5052722;28;20337;-64
2021/03/12 14:57:06;;;;;;;;;;;;;;;;;;5052740;28;19904;-65
2021/03/12 14:59:34;;;;;;;;;;;;;;;;;;5053876;28;19962;-66
2021/03/12 15:02:00;;;;;;;;;;;;;;;;;;5052144;28;19908;-65
2021/03/12 15:04:26;;;;;;;;;;;;;;;;;;5054526;28;20023;-65
2021/03/12 15:06:53;;;;;;;;;;;;;;;;;;5054755;28;19905;-64
2021/03/12 15:09:19;;;;;;;;;;;;;;;;;;5054238;28;20346;-65
2021/03/12 15:11:45;;;;;;;;;;;;;;;;;;5054724;28;19911;-65
2021/03/12 15:14:11;;;;;;;;;;;;;;;;;;5054387;28;20351;-66
2021/03/12 15:16:37;;;;;;;;;;;;;;;;;;5054617;28;19935;-64
2021/03/12 15:19:03;;;;;;;;;;;;;;;;;;5054430;28;20285;-65
2021/03/12 15:21:29;;;;;;;;;;;;;;;;;;5054597;28;19919;-65
2021/03/12 15:23:55;;;;;;;;;;;;;;;;;;5054200;28;20368;-65
2021/03/12 15:26:21;;;;;;;;;;;;;;;;;;5054564;28;19908;-66
2021/03/12 15:28:47;;;;;;;;;;;;;;;;;;5054047;28;19995;-64
2021/03/12 15:31:13;;;;;;;;;;;;;;;;;;5051008;28;20035;-63
2021/03/12 15:33:39;;;;;;;;;;;;;;;;;;5052678;28;20404;-64
2021/03/12 15:36:05;;;;;;;;;;;;;;;;;;5053462;28;20002;-64
2021/03/12 15:38:31;;;;;;;;;;;;;;;;;;5054107;28;19993;-62
2021/03/12 15:40:57;;;;;;;;;;;;;;;;;;5054360;28;19908;-64
2021/03/12 15:43:23;;;;;;;;;;;;;;;;;;5053525;28;20357;-63
2021/03/12 15:45:49;;;;;;;;;;;;;;;;;;5053196;28;19917;-64
2021/03/12 15:48:15;;;;;;;;;;;;;;;;;;5054234;28;19950;-64
2021/03/12 15:50:41;;;;;;;;;;;;;;;;;;5053612;28;19962;-64
2021/03/12 15:53:07;;;;;;;;;;;;;;;;;;5054045;28;19988;-64
2021/03/12 15:55:33;;;;;;;;;;;;;;;;;;5053646;28;19963;-64
2021/03/12 15:58:00;;;;;;;;;;;;;;;;;;5053832;28;19905;-63
2021/03/12 16:00:28;;;;;;;;;;;;;;;;;;5053853;28;19909;-63
2021/03/12 16:02:53;;;;;;;;;;;;;;;;;;5050871;28;19909;-64
2021/03/12 16:05:19;;;;;;;;;;;;;;;;;;5053538;28;20280;-63
2021/03/12 16:07:45;;;;;;;;;;;;;;;;;;5053215;28;19909;-63
2021/03/12 16:10:11;;;;;;;;;;;;;;;;;;5052662;28;19913;-64
2021/03/12 16:12:37;;;;;;;;;;;;;;;;;;5053207;28;19909;-62
2021/03/12 16:15:05;;;;;;;19.15;10.80;;;;;;;;;;5051549;28;20281;-64
2021/03/12 16:17:31;;;;;;;;;;;;;;;;;;5053432;28;20012;-62
2021/03/12 16:19:57;;;;;;;;;;;;;;;;;;5052675;28;19993;-62
2021/03/12 16:22:22;;;;;;;;;;;;;;;;;;5053325;28;19909;-62
2021/03/12 16:24:49;;;;;;;;;;;;;;;;;;5053223;28;20403;-62
2021/03/12 16:27:15;;;;;;;;;;;;;;;;;;5053624;28;19909;-62
2021/03/12 16:29:41;;;;;;;;;;;;;;;;;;5053440;28;19995;-63
2021/03/12 16:32:07;;;;;;;;;;;;;;;;;;5053381;28;19912;-60
2021/03/12 16:34:33;;;;;;;;;;;;;;;;;;5053281;28;20372;-62
2021/03/12 16:36:59;;;;;;;;;;;;;;;;;;5053567;28;20083;-62